• Join FlightAware (Why Join?)
  • Login
  • US Flag 
09:50PM EST


 

Airport Tracker/Info


-or-


 

Live Flight TrackerFlight Track Log ✈ ACA953 ✈ 10-Nov-2013 ✈ TFFF / FDF - CYUL

Flight Track Log - Related Links

Times and Time Zones

All times are in EST time to prevent confusion due to time zone crossing. See the ACA953 flight status page for this flight to view local times or setup timezone preferences in your user account.

Time Position Orientation Groundspeed Altitude Reporting Facility
EST Latitude Longitude Course Direction KTS MPH feet Rate Location/Type
02:37PM 14.9158 -61.0921 345° North  Level FlightAware Approximate
02:38PM 15.0240 -61.1218 345° North  Level FlightAware Approximate
02:39PM 15.1323 -61.1516 345° North  Level FlightAware Approximate
02:40PM 15.2405 -61.1814 345° North  Level FlightAware Approximate
02:41PM 15.3488 -61.2112 345° North  Level FlightAware Approximate
02:42PM 15.4570 -61.2410 345° North  Level FlightAware Approximate
02:43PM 15.5652 -61.2709 345° North  Level FlightAware Approximate
02:44PM 15.6734 -61.3008 345° North  Level FlightAware Approximate
02:45PM 15.7816 -61.3307 345° North  Level FlightAware Approximate
02:46PM 15.8899 -61.3606 345° North  Level FlightAware Approximate
02:47PM 15.9981 -61.3906 345° North  Level FlightAware Approximate
02:48PM 16.1063 -61.4207 345° North  Level FlightAware Approximate
02:49PM 16.2145 -61.4507 345° North  Level FlightAware Approximate
02:50PM 16.3227 -61.4808 345° North  Level FlightAware Approximate
02:51PM 16.4309 -61.5109 345° North  Level FlightAware Approximate
02:52PM 16.5391 -61.5411 345° North  Level FlightAware Approximate
02:53PM 16.6462 -61.5751 345° North  Level Estimated
02:54PM 16.7545 -61.6048 345° North  Level FlightAware Approximate
02:55PM 16.8595 -61.6332 346° North  Level FlightAware Approximate
02:56PM 16.9645 -61.6616 346° North  Level FlightAware Approximate
02:57PM 17.0693 -61.6905 345° North  Level FlightAware Approximate
02:58PM 17.1741 -61.7196 345° North  Level FlightAware Approximate
02:59PM 17.2789 -61.7487 345° North  Level FlightAware Approximate
02:59PM 16.9500 -61.6667 345° North 410 472 38,000  Level San Juan Center
03:00PM 17.3837 -61.7779 345° North  Level FlightAware Approximate
03:00PM 17.0500 -61.7000 342° North 420 483 38,000  Level San Juan Center
03:01PM 17.4885 -61.8070 345° North  Level FlightAware Approximate
03:01PM 17.1667 -61.7333 345° North 420 483 38,000  Level San Juan Center
03:02PM 17.5933 -61.8363 345° North  Level FlightAware Approximate
03:02PM 17.2667 -61.7667 342° North 420 483 38,000  Level San Juan Center
03:03PM 17.6981 -61.8655 345° North  Level FlightAware Approximate
03:03PM 17.4000 -61.8000 347° North 420 483 38,000  Level San Juan Center
03:04PM 17.8029 -61.8948 345° North  Level FlightAware Approximate
03:04PM 17.5167 -61.8333 345° North 420 483 38,000  Level San Juan Center
03:05PM 17.9077 -61.9241 345° North  Level FlightAware Approximate
03:05PM 17.6333 -61.8667 345° North 420 483 38,000  Level San Juan Center
03:06PM 17.7333 -61.8833 351° North 420 483 38,000  Level San Juan Center
03:07PM 17.8500 -61.9167 345° North 420 483 38,000  Level San Juan Center
03:08PM 17.9667 -61.9500 345° North 420 483 38,000  Level San Juan Center
03:09PM 18.0833 -61.9833 345° North 420 483 38,000  Level San Juan Center
03:10PM 18.2000 -62.0000 352° North 420 483 38,000  Level San Juan Center
03:11PM 18.3167 -62.0167 352° North 430 495 38,000  Level San Juan Center
03:12PM 18.4333 -62.0500 345° North 430 495 38,000  Level San Juan Center
03:13PM 18.5500 -62.0667 352° North 430 495 38,000  Level San Juan Center
03:14PM 18.6667 -62.0833 352° North 430 495 38,100  Climbing San Juan Center
03:15PM 18.7833 -62.1167 345° North 430 495 38,100 -300 Level San Juan Center
03:16PM 18.9000 -62.1333 352° North 420 483 37,500 -840 Descending San Juan Center
03:17PM 19.0167 -62.1500 352° North 430 495 36,500 -780 Descending San Juan Center
03:18PM 19.1500 -62.1833 347° North 440 506 36,000 -300 Descending San Juan Center
03:19PM 19.2667 -62.2000 352° North 440 506 36,000  Level San Juan Center
03:20PM 19.3833 -62.2333 345° North 440 506 36,000  Level San Juan Center
03:21PM 19.5000 -62.2500 352° North 440 506 36,000  Level San Juan Center
03:22PM 19.6167 -62.2667 352° North 440 506 36,000  Level San Juan Center
03:23PM 19.7333 -62.3000 345° North 430 495 36,000  Level San Juan Center
03:24PM 19.8667 -62.3167 353° North 430 495 36,000  Level San Juan Center
03:25PM 19.9833 -62.3500 345° North 440 506 36,000  Level San Juan Center
03:26PM 20.0833 -62.3667 351° North 420 483 36,000  Level San Juan Center
03:27PM 20.2000 -62.3833 352° North 420 483 36,000  Level San Juan Center
03:28PM 20.3167 -62.4000 352° North 430 495 36,000  Level San Juan Center
03:29PM 20.4333 -62.4333 345° North 420 483 36,000  Level San Juan Center
03:31PM 20.5635 -62.4559 350° North  Level FlightAware Approximate
03:38PM 21.3065 -62.6015 350° North  Level FlightAware Approximate
03:39PM 21.4127 -62.6226 349° North  Level FlightAware Approximate
03:40PM 21.5187 -62.6440 349° North  Level FlightAware Approximate
03:41PM 21.6248 -62.6654 349° North  Level FlightAware Approximate
03:42PM 21.7308 -62.6869 349° North  Level FlightAware Approximate
03:43PM 21.8369 -62.7084 349° North  Level FlightAware Approximate
03:43PM 20.5333 -62.4500 349° North 415 478 36,000  Level New York Oceanic (ODAPS)
03:44PM 21.9429 -62.7299 349° North  Level FlightAware Approximate
03:45PM 22.0489 -62.7515 349° North  Level FlightAware Approximate
03:46PM 22.1550 -62.7731 349° North  Level FlightAware Approximate
03:47PM 22.2643 -62.7954 349° North  Level FlightAware Approximate
03:48PM 22.3736 -62.8177 349° North  Level FlightAware Approximate
03:49PM 22.4829 -62.8401 349° North  Level FlightAware Approximate
03:50PM 22.7015 -62.8859 349° North 415 478 36,000  Level FlightAware Transoceanic
03:51PM 22.8156 -62.9093 349° North 415 478 36,000  Level FlightAware Transoceanic
03:52PM 22.9297 -62.9326 349° North 415 478 36,000  Level FlightAware Transoceanic
03:53PM 23.0437 -62.9560 349° North 415 478 36,000  Level FlightAware Transoceanic
03:54PM 23.1578 -62.9795 349° North 415 478 36,000  Level FlightAware Transoceanic
03:55PM 23.2719 -63.0029 349° North 415 478 36,000  Level FlightAware Transoceanic
03:56PM 23.3859 -63.0264 349° North 415 478 36,000  Level FlightAware Transoceanic
03:57PM 23.5000 -63.0500 349° North 415 478 36,000  Level FlightAware Transoceanic
03:58PM 23.6129 -63.0732 349° North 415 478 36,000  Level FlightAware Transoceanic
03:58PM 23.5000 -63.0500 349° North 420 483 36,000  Level New York Oceanic (ODAPS)
03:59PM 23.7258 -63.0965 349° North 415 478 36,000  Level FlightAware Transoceanic
04:00PM 23.8388 -63.1198 349° North 415 478 36,000  Level FlightAware Transoceanic
04:01PM 23.9517 -63.1431 349° North 415 478 36,000  Level FlightAware Transoceanic
04:02PM 24.0646 -63.1665 349° North 415 478 36,000  Level FlightAware Transoceanic
04:03PM 24.1775 -63.1899 349° North 415 478 36,000  Level FlightAware Transoceanic
04:04PM 24.4210 -63.2405 349° North 420 483 36,000  Level FlightAware Transoceanic
04:05PM 24.5361 -63.2645 349° North 420 483 36,000  Level FlightAware Transoceanic
04:06PM 24.6512 -63.2886 349° North 420 483 36,000  Level FlightAware Transoceanic
04:07PM 24.7663 -63.3126 349° North 420 483 36,000  Level FlightAware Transoceanic
04:08PM 24.8814 -63.3368 349° North 420 483 36,000  Level FlightAware Transoceanic
04:09PM 24.9965 -63.3610 349° North 420 483 36,000  Level FlightAware Transoceanic
04:10PM 25.1115 -63.3852 349° North 420 483 36,000  Level FlightAware Transoceanic
04:11PM 25.2266 -63.4095 349° North 420 483 36,000  Level FlightAware Transoceanic
04:12PM 25.3417 -63.4338 349° North 420 483 36,000  Level FlightAware Transoceanic
04:13PM 25.4568 -63.4582 349° North 420 483 36,000  Level FlightAware Transoceanic
04:14PM 25.5718 -63.4826 349° North 420 483 36,000  Level FlightAware Transoceanic
04:15PM 25.6869 -63.5070 349° North 420 483 36,000  Level FlightAware Transoceanic
04:16PM 25.8020 -63.5315 349° North 420 483 36,000  Level FlightAware Transoceanic
04:17PM 25.9170 -63.5561 349° North 420 483 36,000  Level FlightAware Transoceanic
04:18PM 26.0321 -63.5807 349° North 420 483 36,000  Level FlightAware Transoceanic
04:19PM 26.1471 -63.6054 349° North 420 483 36,000  Level FlightAware Transoceanic
04:20PM 26.2622 -63.6301 349° North 420 483 36,000  Level FlightAware Transoceanic
04:21PM 26.3772 -63.6548 349° North 420 483 36,000  Level FlightAware Transoceanic
04:22PM 26.4923 -63.6796 349° North 420 483 36,000  Level FlightAware Transoceanic
04:23PM 26.6073 -63.7044 349° North 420 483 36,000  Level FlightAware Transoceanic
04:24PM 26.7223 -63.7294 349° North 420 483 36,000  Level FlightAware Transoceanic
04:25PM 26.8373 -63.7543 349° North 420 483 36,000  Level FlightAware Transoceanic
04:26PM 26.9524 -63.7793 349° North 420 483 36,000  Level FlightAware Transoceanic
04:27PM 27.0674 -63.8044 349° North 420 483 36,000  Level FlightAware Transoceanic
04:28PM 27.1824 -63.8294 349° North 420 483 36,000  Level FlightAware Transoceanic
04:29PM 27.2974 -63.8546 349° North 420 483 36,000  Level FlightAware Transoceanic
04:30PM 27.4124 -63.8798 349° North 420 483 36,000  Level FlightAware Transoceanic
04:31PM 27.5274 -63.9051 349° North 420 483 36,000  Level FlightAware Transoceanic
04:32PM 27.6424 -63.9304 349° North 420 483 36,000  Level FlightAware Transoceanic
04:33PM 27.7574 -63.9557 349° North 420 483 36,000  Level FlightAware Transoceanic
04:34PM 27.8723 -63.9812 349° North 420 483 36,000  Level FlightAware Transoceanic
04:35PM 27.9873 -64.0066 349° North 420 483 36,000  Level FlightAware Transoceanic
04:36PM 28.1023 -64.0322 349° North 420 483 36,000  Level FlightAware Transoceanic
04:37PM 28.2173 -64.0577 349° North 420 483 36,000  Level FlightAware Transoceanic
04:38PM 28.3322 -64.0834 349° North 420 483 36,000  Level FlightAware Transoceanic
04:39PM 28.4472 -64.1091 349° North 420 483 36,000  Level FlightAware Transoceanic
04:40PM 28.5621 -64.1348 349° North 420 483 36,000  Level FlightAware Transoceanic
04:41PM 28.6771 -64.1606 349° North 420 483 36,000  Level FlightAware Transoceanic
04:42PM 28.7920 -64.1865 349° North 420 483 36,000  Level FlightAware Transoceanic
04:43PM 28.9070 -64.2124 349° North 420 483 36,000  Level FlightAware Transoceanic
04:44PM 29.0219 -64.2384 349° North 420 483 36,000  Level FlightAware Transoceanic
04:45PM 29.1368 -64.2644 349° North 420 483 36,000  Level FlightAware Transoceanic
04:46PM 29.2518 -64.2905 349° North 420 483 36,000  Level FlightAware Transoceanic
04:47PM 29.3667 -64.3167 349° North 420 483 36,000  Level FlightAware Transoceanic
04:48PM 29.4778 -64.3409 349° North 420 483 36,000  Level FlightAware Transoceanic
04:48PM 29.3681 -64.3325 349° North 435 501 36,000  Level New York Center
04:49PM 29.5889 -64.3652 349° North 420 483 36,000  Level FlightAware Transoceanic
04:49PM 29.4669 -64.3542 349° North 423 487 36,000  Level New York Center
04:50PM 29.7001 -64.3895 349° North 420 483 36,000  Level FlightAware Transoceanic
04:50PM 29.5864 -64.3719 353° North 407 468 36,000  Level New York Center
04:51PM 29.8112 -64.4139 349° North 420 483 36,000  Level FlightAware Transoceanic
04:51PM 29.7003 -64.3997 348° North 407 468 36,000  Level New York Center
04:52PM 29.9223 -64.4384 349° North 420 483 36,000  Level FlightAware Transoceanic
04:52PM 29.7969 -64.4214 349° North 402 463 36,000  Level New York Center
04:53PM 30.0334 -64.4629 349° North 420 483 36,000  Level FlightAware Transoceanic
04:54PM 29.9189 -64.4464 350° North 402 463 36,000 180 Level New York Center
04:54PM 30.0178 -64.4681 349° North 397 457 36,400 840 Climbing New York Center
04:55PM 30.1356 -64.4933 349° North 392 451 37,700 780 Climbing New York Center
04:56PM 30.2469 -64.5144 351° North 392 451 38,000 120 Climbing New York Center
04:57PM 30.3414 -64.5317 351° North 392 451 38,000  Level New York Center
04:58PM 30.4572 -64.5572 349° North 392 451 38,000  Level New York Center
04:59PM 30.5625 -64.5811 349° North 387 445 38,000  Level New York Center
05:00PM 30.6556 -64.6108 345° North 392 451 38,000  Level New York Center
05:01PM 30.7736 -64.6411 348° North 387 445 38,000  Level New York Center
05:02PM 30.8664 -64.6636 348° North 382 440 38,000  Level New York Center
05:04PM 30.9842 -64.6869 350° North 382 440 38,000  Level New York Center
05:04PM 31.0914 -64.7111 349° North 382 440 38,000  Level New York Center
05:05PM 31.1839 -64.7289 351° North 382 440 38,000  Level New York Center
05:07PM 31.3039 -64.7544 350° North 382 440 38,000  Level New York Center
05:07PM 31.4094 -64.7789 349° North 387 445 38,000  Level New York Center
05:08PM 31.5081 -64.7989 350° North 387 445 38,000  Level New York Center
05:09PM 31.6261 -64.8225 350° North 393 452 38,000  Level New York Center
05:10PM 31.7189 -64.8478 347° North 393 452 38,000  Level New York Center
05:11PM 31.8369 -64.8739 349° North 388 447 38,000  Level New York Center
05:13PM 31.9464 -64.8981 349° North 395 455 38,000  Level New York Center
05:13PM 32.0411 -64.9211 348° North 395 455 38,000  Level New York Center
05:14PM 32.1592 -64.9472 349° North 395 455 38,000  Level New York Center
05:15PM 32.2647 -64.9744 348° North 395 455 38,000  Level New York Center
05:16PM 32.3617 -64.9972 349° North 389 448 38,000  Level New York Center
05:17PM 32.4817 -65.0236 349° North 395 455 38,000  Level New York Center
05:18PM 32.5892 -65.0483 349° North 395 455 38,000  Level New York Center
05:19PM 32.6881 -65.0689 350° North 395 455 38,000  Level New York Center
05:20PM 32.8039 -65.0931 350° North 389 448 38,000  Level New York Center
05:21PM 32.8989 -65.1164 348° North 394 453 38,000  Level New York Center
05:22PM 33.0147 -65.1408 350° North 394 453 38,000  Level New York Center
05:24PM 33.1222 -65.1683 348° North 394 453 38,000  Level New York Center
05:24PM 33.2169 -65.1892 350° North 394 453 38,000  Level New York Center
05:25PM 33.3353 -65.2186 348° North 394 453 38,000  Level New York Center
05:26PM 33.4428 -65.2464 348° North 394 453 38,000  Level New York Center
05:27PM 33.5397 -65.2672 350° North 394 453 38,000  Level New York Center
05:29PM 33.6558 -65.2969 348° North 394 453 38,000  Level New York Center
05:29PM 33.7506 -65.3208 348° North 388 447 38,000  Level New York Center
05:30PM 33.8708 -65.3478 349° North 393 452 38,000  Level New York Center
05:31PM 33.9825 -65.3756 348° North 398 458 38,000  Level New York Center
05:32PM 34.0794 -65.3992 349° North 398 458 38,000  Level New York Center
05:33PM 34.1997 -65.4289 348° North 398 458 38,000  Level New York Center
05:34PM 34.3075 -65.4572 348° North 398 458 38,000  Level New York Center
05:36PM 34.4064 -65.4808 349° North 398 458 38,000  Level New York Center
05:36PM 34.5247 -65.5136 347° North 398 458 38,000  Level New York Center
05:37PM 34.6217 -65.5375 349° North 391 450 38,000  Level New York Center
05:38PM 34.7422 -65.5703 347° North 391 450 38,000  Level New York Center
05:39PM 34.8514 -65.5911 351° North 402 463 38,000  Level New York Center
05:40PM 34.9489 -65.6228 345° North 397 457 38,000  Level New York Center
05:41PM 35.0708 -65.6481 350° North 397 457 38,000  Level New York Center
05:42PM 35.1681 -65.6772 346° North 397 457 38,000  Level New York Center
05:44PM 35.2844 -65.7158 345° North 397 457 38,000 -60 Level New York Center
05:45PM 35.3869 -65.7655 338° Northwest  Level FlightAware Approximate
05:52PM 36.1033 -66.1167 338° Northwest  Level FlightAware Approximate
05:53PM 36.2055 -66.1674 338° Northwest  Level FlightAware Approximate
05:54PM 36.3078 -66.2182 338° Northwest  Level FlightAware Approximate
05:55PM 36.4100 -66.2691 338° Northwest  Level FlightAware Approximate
05:56PM 36.5122 -66.3202 338° Northwest  Level FlightAware Approximate
05:57PM 36.6143 -66.3715 338° Northwest  Level FlightAware Approximate
05:58PM 36.7165 -66.4228 338° Northwest  Level FlightAware Approximate
05:59PM 36.8186 -66.4743 338° Northwest  Level FlightAware Approximate
06:00PM 36.9207 -66.5259 338° Northwest  Level FlightAware Approximate
06:01PM 37.0228 -66.5777 338° Northwest  Level FlightAware Approximate
06:02PM 37.1247 -66.6301 338° Northwest  Level FlightAware Approximate
06:03PM 37.2265 -66.6831 337° Northwest  Level FlightAware Approximate
06:04PM 37.3282 -66.7362 337° Northwest  Level FlightAware Approximate
06:05PM 37.4299 -66.7895 337° Northwest  Level FlightAware Approximate
06:06PM 37.5311 -66.8442 337° Northwest  Level FlightAware Approximate
06:07PM 37.6322 -66.8994 337° Northwest  Level FlightAware Approximate
06:08PM 37.7332 -66.9548 337° Northwest  Level FlightAware Approximate
06:09PM 37.8343 -67.0103 337° Northwest  Level FlightAware Approximate
06:10PM 37.9353 -67.0660 337° Northwest  Level FlightAware Approximate
06:11PM 38.0368 -67.1201 338° Northwest  Level FlightAware Approximate
06:12PM 38.1386 -67.1737 338° Northwest  Level FlightAware Approximate
06:13PM 38.2403 -67.2273 337° Northwest  Level FlightAware Approximate
06:14PM 38.3420 -67.2812 337° Northwest  Level FlightAware Approximate
06:15PM 38.4437 -67.3352 337° Northwest  Level FlightAware Approximate
06:16PM 38.5454 -67.3893 337° Northwest  Level FlightAware Approximate
06:16PM 38.5153 -67.4128 336° Northwest 437 503 37,900  Level New York Center
06:17PM 38.6470 -67.4436 337° Northwest  Level FlightAware Approximate
06:17PM 38.6128 -67.4642 338° Northwest 407 468 37,900  Level New York Center
06:18PM 38.7486 -67.4980 337° Northwest  Level FlightAware Approximate
06:18PM 38.7122 -67.5183 337° Northwest 387 445 37,900  Level New York Center
06:19PM 38.8490 -67.5561 335° Northwest  Level FlightAware Approximate
06:19PM 38.8117 -67.5753 336° Northwest 387 445 38,000  Level New York Center
06:20PM 38.9512 -67.6048 336° Northwest  Level FlightAware Approximate
06:20PM 38.9153 -67.6242 340° North 387 445 38,000  Level New York Center
06:21PM 39.0520 -67.6617 336° Northwest  Level FlightAware Approximate
06:21PM 39.0108 -67.6894 332° Northwest 387 445 38,000  Level New York Center
06:22PM 39.0981 -67.7608 328° Northwest 382 440 38,000 -60 Level New York Center
06:23PM 39.1814 -67.8378 324° Northwest 377 434 37,900 -60 Descending New York Center
06:24PM 39.2664 -67.9147 325° Northwest 372 428 37,900  Level New York Center
06:25PM 39.3478 -67.9975 322° Northwest 372 428 37,900  Level New York Center
06:26PM 39.4306 -68.0722 325° Northwest 372 428 37,900 420 Level New York Center
06:27PM 39.5158 -68.1472 326° Northwest 372 428 38,800 540 Climbing New York Center
06:28PM 39.6008 -68.2275 324° Northwest 372 428 39,000 60 Climbing New York Center
06:29PM 39.6836 -68.3056 324° Northwest 372 428 39,000 -60 Level New York Center
06:30PM 39.7667 -68.3839 324° Northwest 372 428 38,900 -60 Descending New York Center
06:31PM 39.8514 -68.4594 326° Northwest 372 428 38,900  Level New York Center
06:32PM 39.9342 -68.5353 325° Northwest 372 428 38,900  Level New York Center
06:33PM 40.0208 -68.6111 326° Northwest 372 428 39,000  Climbing New York Center
06:34PM 40.1056 -68.6900 325° Northwest 377 434 39,000  Level New York Center
06:35PM 40.1964 -68.7661 327° Northwest 377 434 39,000 -60 Level New York Center
06:36PM 40.2792 -68.8483 323° Northwest 383 441 38,900 -60 Descending New York Center
06:37PM 40.3678 -68.9331 324° Northwest 388 447 38,900  Level New York Center
06:39PM 40.5311 -69.0925 323° Northwest 367 422 38,900  Level Boston Center
06:40PM 40.6100 -69.1736 322° Northwest 362 417 38,900  Level Boston Center
06:41PM 40.6911 -69.2542 323° Northwest 364 419 39,000  Climbing Boston Center
06:42PM 40.7725 -69.3369 322° Northwest 367 422 39,000 -60 Level Boston Center
06:43PM 40.8539 -69.4192 323° Northwest 369 425 38,900 -60 Descending Boston Center
06:44PM 40.9358 -69.4997 323° Northwest 371 427 38,900  Level Boston Center
06:45PM 41.0358 -69.5956 324° Northwest 373 429 39,000  Climbing Boston Center
06:46PM 41.1181 -69.6781 323° Northwest 374 430 39,000 -60 Level Boston Center
06:47PM 41.2000 -69.7611 323° Northwest 371 427 38,900 -60 Descending Boston Center
06:48PM 41.2836 -69.8433 324° Northwest 379 436 38,900  Level Boston Center
06:49PM 41.3675 -69.9289 323° Northwest 384 442 38,900  Level Boston Center
06:50PM 41.4522 -70.0144 323° Northwest 386 444 39,000  Climbing Boston Center
06:51PM 41.5369 -70.0994 323° Northwest 384 442 39,000 -60 Level Boston Center
06:52PM 41.6219 -70.1858 323° Northwest 385 443 38,900 -60 Descending Boston Center
06:53PM 41.7050 -70.2722 322° Northwest 382 440 38,900  Level Boston Center
06:54PM 41.8031 -70.3742 322° Northwest 384 442 39,000  Climbing Boston Center
06:55PM 41.8875 -70.4608 323° Northwest 384 442 39,000  Level Boston Center
06:56PM 41.9642 -70.5406 322° Northwest 383 441 39,000 -60 Level Boston Center
06:57PM 42.0489 -70.6269 323° Northwest 381 438 38,900 -60 Descending Boston Center
06:58PM 42.1386 -70.7197 323° Northwest 378 435 38,900  Level Boston Center
06:59PM 42.2225 -70.8072 322° Northwest 381 438 39,000  Climbing Boston Center
07:04PM 42.6450 -71.2550 322° Northwest 100 115 39,000  Level FlightAware
07:05PM 42.6860 -71.2980 322° Northwest 100 115 39,000  Level FlightAware
07:06PM 42.7560 -71.3720 322° Northwest 393 452 39,000  Level FlightAware
07:06PM 42.8100 -71.4310 321° Northwest 392 451 39,000  Level FlightAware
07:07PM 42.8710 -71.4930 323° Northwest 390 449 39,000  Level FlightAware
07:08PM 42.9300 -71.5540 323° Northwest 390 449 39,000  Level FlightAware
07:09PM 42.9880 -71.6140 323° Northwest 390 449 39,000  Level FlightAware
07:09PM 43.0180 -71.6440 324° Northwest 390 449 39,000  Level FlightAware
07:10PM 43.1600 -71.8070 320° Northwest 393 452 39,000  Level FlightAware
07:11PM 43.2490 -71.9050 321° Northwest 391 450 39,100 60 Climbing FlightAware
07:12PM 43.2810 -71.9410 321° Northwest 391 450 39,100  Level FlightAware
07:13PM 43.3540 -72.0220 321° Northwest 391 450 39,100  Level FlightAware
07:14PM 43.4120 -72.0860 321° Northwest 391 450 39,100  Level FlightAware
07:14PM 43.4550 -72.1340 321° Northwest 391 450 39,100  Level FlightAware
07:15PM 43.4980 -72.1820 321° Northwest 391 450 39,100  Level FlightAware
07:16PM 43.5540 -72.2450 321° Northwest 391 450 39,100  Level FlightAware
07:17PM 43.6270 -72.3260 321° Northwest 391 450 39,100  Level FlightAware
07:17PM 43.6700 -72.3740 321° Northwest 391 450 39,100  Level FlightAware
07:18PM 43.7560 -72.4710 321° Northwest 391 450 39,100  Level FlightAware
07:19PM 43.8130 -72.5350 321° Northwest 391 450 39,100  Level FlightAware
07:20PM 43.8560 -72.5840 321° Northwest 391 450 39,100  Level FlightAware
07:21PM 43.9280 -72.6640 321° Northwest 391 450 39,100 -3,060 Level FlightAware
07:22PM 44.1289 -72.8831 321° Northwest 382 440 33,500 -4,020 Descending Boston Center
07:23PM 44.2058 -72.9683 322° Northwest 360 414 31,600 -1,920 Descending Boston Center
07:24PM 44.2806 -73.0539 321° Northwest 350 403 29,700 -1,860 Descending Boston Center
07:25PM 44.3514 -73.1353 321° Northwest 334 384 27,900 -2,040 Descending Boston Center
07:26PM 44.4339 -73.2297 321° Northwest 320 368 25,600 -2,040 Descending Boston Center
07:27PM 44.5014 -73.3081 320° Northwest 315 362 23,800 -1,800 Descending Boston Center
07:28PM 44.5669 -73.3833 321° Northwest 305 351 22,000 -1,740 Descending Boston Center
07:29PM 44.6300 -73.4564 321° Northwest 295 339 20,300 -1,740 Descending Boston Center
07:30PM 44.6956 -73.5211 325° Northwest 294 338 18,600 -1,620 Descending Boston Center
07:31PM 44.7764 -73.5314 355° North 289 333 17,100 -1,500 Descending Boston Center
07:32PM 44.8544 -73.5408 355° North 281 323 15,600 -1,500 Descending Boston Center
07:33PM 44.9322 -73.5494 356° North 280 322 14,100 -1,560 Descending Boston Center
07:34PM 45.0100 -73.5578 356° North 278 320 12,500 -1,560 Descending Boston Center
07:35PM 45.1000 -73.5500 North 270 311 10,700 -1,440 Descending Montreal Center
07:36PM 45.1833 -73.5667 352° North 280 322 9,500 -1,200 Descending Montreal Center
07:37PM 45.2500 -73.5667 360° North 270 311 8,300 -1,140 Descending Montreal Center
07:38PM 45.3167 -73.5833 350° North 260 299 7,300 -1,140 Descending Montreal Center
07:39PM 45.4000 -73.5833 360° North 260 299 6,100 -1,260 Descending Montreal Center
07:40PM 45.4667 -73.5000 41° Northeast 270 311 4,800 -1,080 Descending Montreal Center
07:41PM 45.5167 -73.4500 35° Northeast 240 276 4,000 -720 Descending Montreal Center
07:42PM 45.5667 -73.4500 360° North 200 230 3,400 -540 Descending Montreal Center
07:43PM 45.6000 -73.5167 306° West 180 207 3,000 -240 Descending Montreal Center
07:44PM 45.5833 -73.5667 245° Southwest 180 207 3,000 -480 Level Montreal Center
07:45PM 45.5500 -73.6167 226° Southwest 180 207 2,100 -900 Descending Montreal Center
07:46PM 45.5167 -73.6667 226° Southwest 150 173 1,200 -780 Descending Montreal Center
07:47PM 45.4833 -73.7000 215° Southwest 120 138 600 -420 Descending Montreal Center
07:49PM 45.4500 -73.7500 226° Southwest 30 35 100 -300 Descending Montreal Center